createdAt,value
2023-04-09T00:00:37.698Z,8.59
2023-04-09T00:03:06.200Z,8.75
2023-04-09T00:05:39.722Z,8.68
2023-04-09T00:08:08.798Z,8.68
2023-04-09T00:10:37.782Z,8.66
2023-04-09T00:13:06.266Z,8.66
2023-04-09T00:15:36.792Z,8.65
2023-04-09T00:18:23.411Z,8.48
2023-04-09T00:20:51.340Z,8.45
2023-04-09T00:23:19.320Z,8.56
2023-04-09T00:25:47.460Z,8.41
2023-04-09T00:28:15.828Z,8.33
2023-04-09T00:30:47.485Z,8.44
2023-04-09T00:33:19.603Z,8.68
2023-04-09T00:35:52.595Z,8.48
2023-04-09T00:38:30.647Z,8.51
2023-04-09T00:40:59.117Z,8.55
2023-04-09T00:43:28.070Z,8.60
2023-04-09T00:45:58.898Z,8.62
2023-04-09T00:48:27.063Z,8.57
2023-04-09T00:50:55.584Z,8.48
2023-04-09T00:53:25.780Z,8.61
2023-04-09T00:55:55.538Z,8.50
2023-04-09T00:58:26.022Z,8.59
2023-04-09T01:00:54.091Z,8.48
2023-04-09T01:03:25.279Z,8.50
2023-04-09T01:06:03.629Z,8.46
2023-04-09T01:08:38.020Z,8.39
2023-04-09T01:11:15.818Z,8.19
2023-04-09T01:13:51.301Z,8.16
2023-04-09T01:16:24.300Z,8.43
2023-04-09T01:19:00.494Z,8.29
2023-04-09T01:21:37.614Z,8.40
2023-04-09T01:24:21.844Z,8.40
2023-04-09T01:26:59.509Z,8.39
2023-04-09T01:29:36.007Z,8.25
2023-04-09T01:32:07.472Z,8.17
2023-04-09T01:34:38.584Z,8.05
2023-04-09T01:37:07.763Z,7.96
2023-04-09T01:39:38.777Z,7.59
2023-04-09T01:42:11.189Z,7.80
2023-04-09T01:44:42.349Z,7.67
2023-04-09T01:47:11.403Z,7.61
2023-04-09T01:49:40.942Z,7.50
2023-04-09T01:52:09.518Z,7.43
2023-04-09T01:54:37.564Z,7.36
2023-04-09T01:57:07.849Z,7.21
2023-04-09T01:59:37.662Z,7.23
2023-04-09T02:02:13.364Z,7.20
2023-04-09T02:04:45.767Z,7.25
2023-04-09T02:07:34.614Z,7.16
2023-04-09T02:10:05.024Z,7.04
2023-04-09T02:12:39.441Z,7.06
2023-04-09T02:15:10.495Z,7.20
2023-04-09T02:17:43.474Z,7.02
2023-04-09T02:20:13.996Z,7.19
2023-04-09T02:22:43.603Z,7.15
2023-04-09T02:25:15.615Z,7.09
2023-04-09T02:27:43.785Z,7.03
2023-04-09T02:30:13.536Z,6.93
2023-04-09T02:32:45.525Z,6.94
2023-04-09T02:35:16.515Z,6.88
2023-04-09T02:37:46.997Z,6.73
2023-04-09T02:40:15.384Z,6.86
2023-04-09T02:42:43.665Z,6.43
2023-04-09T02:45:12.427Z,6.29
2023-04-09T02:47:46.708Z,6.72
2023-04-09T02:50:16.741Z,6.69
2023-04-09T02:52:49.662Z,6.44
2023-04-09T02:55:20.734Z,6.67
2023-04-09T02:57:52.916Z,6.69
2023-04-09T03:03:06.591Z,6.59
2023-04-09T03:05:39.021Z,6.63
2023-04-09T03:08:07.006Z,6.68
2023-04-09T03:10:37.083Z,6.65
2023-04-09T03:13:07.178Z,6.64
2023-04-09T03:15:35.480Z,6.39
2023-04-09T03:18:05.630Z,6.65
2023-04-09T03:20:33.943Z,6.56
2023-04-09T03:23:02.767Z,6.59
2023-04-09T03:25:32.286Z,6.43
2023-04-09T03:28:01.468Z,6.39
2023-04-09T03:30:30.198Z,6.17
2023-04-09T03:32:59.675Z,6.37
2023-04-09T03:35:31.160Z,6.25
2023-04-09T03:38:00.315Z,6.37
2023-04-09T03:40:30.146Z,6.30
2023-04-09T03:43:00.634Z,6.26
2023-04-09T03:45:31.624Z,6.05
2023-04-09T03:48:04.276Z,6.15
2023-04-09T03:50:39.978Z,6.20
2023-04-09T03:53:08.548Z,6.13
2023-04-09T03:55:37.058Z,6.16
2023-04-09T03:58:05.299Z,6.17
2023-04-09T04:00:33.579Z,6.18
2023-04-09T04:03:04.281Z,5.82
2023-04-09T04:05:37.392Z,6.03
2023-04-09T04:08:06.621Z,6.03
2023-04-09T04:10:35.979Z,6.10
2023-04-09T04:13:04.709Z,6.13
2023-04-09T04:15:33.336Z,6.07
2023-04-09T04:18:01.924Z,6.03
2023-04-09T04:20:32.075Z,5.86
2023-04-09T04:23:03.518Z,5.92
2023-04-09T04:25:32.102Z,5.86
2023-04-09T04:28:08.295Z,5.93
2023-04-09T04:30:36.717Z,5.92
2023-04-09T04:33:05.296Z,5.92
2023-04-09T04:35:38.009Z,5.99
2023-04-09T04:38:08.046Z,5.97
2023-04-09T04:40:40.930Z,6.03
2023-04-09T04:43:13.117Z,6.07
2023-04-09T04:45:42.932Z,5.82
2023-04-09T04:48:11.545Z,6.12
2023-04-09T04:50:44.892Z,5.95
2023-04-09T04:53:17.677Z,6.05
2023-04-09T04:55:45.837Z,6.30
2023-04-09T04:58:19.114Z,6.10
2023-04-09T05:00:48.719Z,6.30
2023-04-09T05:03:26.093Z,6.27
2023-04-09T05:05:59.686Z,6.31
2023-04-09T05:08:32.785Z,6.36
2023-04-09T05:11:01.386Z,6.22
2023-04-09T05:13:29.674Z,6.32
2023-04-09T05:16:01.437Z,6.41
2023-04-09T05:18:33.708Z,6.24
2023-04-09T05:21:03.842Z,6.44
2023-04-09T05:23:33.442Z,6.51
2023-04-09T05:26:01.415Z,6.40
2023-04-09T05:28:30.267Z,6.64
2023-04-09T05:30:58.598Z,6.69
2023-04-09T05:33:26.669Z,6.91
2023-04-09T05:35:55.145Z,7.07
2023-04-09T05:38:25.967Z,7.15
2023-04-09T05:40:58.167Z,7.27
2023-04-09T05:43:30.917Z,7.38
2023-04-09T05:45:59.297Z,7.41
2023-04-09T05:48:30.934Z,7.54
2023-04-09T05:51:03.147Z,7.74
2023-04-09T05:53:33.307Z,7.88
2023-04-09T05:56:14.439Z,7.70
2023-04-09T05:58:45.611Z,7.72
2023-04-09T06:01:14.190Z,7.87
2023-04-09T06:03:43.183Z,8.08
2023-04-09T06:06:12.011Z,8.29
2023-04-09T06:08:41.419Z,8.30
2023-04-09T06:11:14.509Z,8.09
2023-04-09T06:13:42.650Z,8.46
2023-04-09T06:16:11.099Z,8.72
2023-04-09T06:18:39.168Z,8.89
2023-04-09T06:21:08.930Z,8.80
2023-04-09T06:23:38.296Z,8.88
2023-04-09T06:26:07.631Z,8.79
2023-04-09T06:28:38.017Z,9.17
2023-04-09T06:31:07.387Z,9.31
2023-04-09T06:33:39.659Z,9.49
2023-04-09T06:36:09.285Z,10.00
2023-04-09T06:38:38.970Z,10.24
2023-04-09T06:41:08.476Z,9.58
2023-04-09T06:43:38.097Z,9.88
2023-04-09T06:46:08.869Z,9.74
2023-04-09T06:48:37.885Z,10.13
2023-04-09T06:51:09.675Z,10.11
2023-04-09T06:53:39.157Z,10.69
2023-04-09T06:56:08.560Z,10.83
2023-04-09T06:58:41.288Z,10.32
2023-04-09T07:01:16.467Z,10.67
2023-04-09T07:03:45.821Z,10.51
2023-04-09T07:06:14.245Z,10.62
2023-04-09T07:08:43.402Z,10.63
2023-04-09T07:11:13.048Z,10.45
2023-04-09T07:13:42.488Z,10.87
2023-04-09T07:16:12.126Z,10.80
2023-04-09T07:18:43.108Z,10.87
2023-04-09T07:21:12.857Z,11.07
2023-04-09T07:23:41.528Z,11.15
2023-04-09T07:26:14.540Z,11.26
2023-04-09T07:28:46.907Z,11.45
2023-04-09T07:31:16.499Z,11.41
2023-04-09T07:33:45.076Z,11.16
2023-04-09T07:36:13.267Z,11.42
2023-04-09T07:38:42.965Z,11.63
2023-04-09T07:41:12.813Z,11.43
2023-04-09T07:43:41.643Z,11.06
2023-04-09T07:46:12.289Z,11.30
2023-04-09T07:48:41.761Z,11.56
2023-04-09T07:51:11.704Z,11.78
2023-04-09T07:53:43.288Z,11.98
2023-04-09T07:56:12.948Z,11.93
2023-04-09T07:58:42.138Z,11.94
2023-04-09T08:01:12.360Z,12.26
2023-04-09T08:03:40.996Z,11.91
2023-04-09T08:06:09.474Z,12.22
2023-04-09T08:08:38.219Z,12.48
2023-04-09T08:11:07.031Z,12.40
2023-04-09T08:13:37.128Z,12.71
2023-04-09T08:16:07.457Z,12.58
2023-04-09T08:18:39.815Z,12.55
2023-04-09T08:21:09.073Z,12.43
2023-04-09T08:23:37.753Z,12.65
2023-04-09T08:26:06.099Z,12.72
2023-04-09T08:28:35.110Z,13.30
2023-04-09T08:31:06.503Z,13.34
2023-04-09T08:33:36.246Z,13.04
2023-04-09T08:36:09.241Z,13.17
2023-04-09T08:38:37.291Z,12.89
2023-04-09T08:41:06.095Z,13.08
2023-04-09T08:43:56.281Z,12.72
2023-04-09T08:46:28.164Z,13.37
2023-04-09T08:49:03.493Z,13.14
2023-04-09T08:51:32.086Z,13.35
2023-04-09T08:54:03.921Z,13.51
2023-04-09T08:56:34.869Z,14.02
2023-04-09T08:59:05.645Z,14.49
2023-04-09T09:01:34.325Z,14.16
2023-04-09T09:04:07.473Z,13.95
2023-04-09T09:06:37.262Z,14.07
2023-04-09T09:09:09.443Z,13.96
2023-04-09T09:11:39.439Z,13.87
2023-04-09T09:14:09.389Z,14.09
2023-04-09T09:16:44.205Z,14.27
2023-04-09T09:19:33.928Z,13.63
2023-04-09T09:22:04.641Z,14.21
2023-04-09T09:24:34.570Z,14.01
2023-04-09T09:27:09.929Z,14.14
2023-04-09T09:29:45.115Z,14.43
2023-04-09T09:32:15.583Z,14.75
2023-04-09T09:34:59.983Z,14.38
2023-04-09T09:37:32.733Z,14.49
2023-04-09T09:40:02.022Z,14.25
2023-04-09T09:42:34.474Z,14.62
2023-04-09T09:45:05.199Z,14.15
2023-04-09T09:47:36.438Z,14.52
2023-04-09T09:50:09.816Z,14.69
2023-04-09T09:52:40.546Z,14.89
2023-04-09T09:55:10.990Z,15.11
2023-04-09T09:57:43.629Z,14.91
2023-04-09T10:00:15.207Z,15.23
2023-04-09T10:02:49.560Z,14.85
2023-04-09T10:05:19.075Z,14.91
2023-04-09T10:07:49.674Z,14.85
2023-04-09T10:10:18.769Z,15.52
2023-04-09T10:12:47.180Z,15.44
2023-04-09T10:15:19.265Z,15.42
2023-04-09T10:17:47.659Z,15.24
2023-04-09T10:20:25.141Z,15.12
2023-04-09T10:22:54.820Z,15.03
2023-04-09T10:25:24.298Z,14.75
2023-04-09T10:28:02.569Z,14.79
2023-04-09T10:30:36.463Z,15.18
2023-04-09T10:33:12.910Z,15.44
2023-04-09T10:35:47.409Z,15.42
2023-04-09T10:38:17.089Z,15.41
2023-04-09T10:40:49.937Z,14.92
2023-04-09T10:43:28.555Z,15.12
2023-04-09T10:45:59.361Z,15.11
2023-04-09T10:48:32.449Z,15.10
2023-04-09T10:51:07.346Z,15.24
2023-04-09T10:53:35.722Z,15.23
2023-04-09T11:02:05.765Z,15.31
2023-04-09T13:43:34.687Z,17.46
2023-04-09T13:46:06.621Z,18.04
2023-04-09T13:48:36.572Z,17.46
2023-04-09T13:51:05.695Z,17.11
2023-04-09T13:53:36.300Z,17.51
2023-04-09T14:02:47.322Z,17.37
2023-04-09T14:08:35.560Z,17.16
2023-04-09T14:11:20.562Z,16.94
2023-04-09T14:20:55.387Z,17.21
2023-04-09T14:23:26.482Z,18.11
2023-04-09T14:26:18.259Z,17.71
2023-04-09T14:28:55.233Z,17.59
2023-04-09T14:31:25.030Z,17.89
2023-04-09T14:37:03.191Z,22.03
2023-04-09T14:39:33.220Z,21.88
2023-04-09T14:42:02.229Z,24.62
2023-04-09T14:44:37.718Z,23.72
2023-04-09T14:47:18.505Z,24.45
2023-04-09T14:49:50.082Z,23.47
2023-04-09T14:52:23.972Z,24.25
2023-04-09T14:54:53.827Z,24.56
2023-04-09T14:57:39.729Z,24.18
2023-04-09T15:00:11.205Z,24.08
2023-04-09T15:02:46.313Z,24.80
2023-04-09T15:05:17.852Z,25.45
2023-04-09T15:07:50.187Z,24.33
2023-04-09T15:10:20.145Z,23.14
2023-04-09T15:12:50.467Z,21.29
2023-04-09T15:15:19.502Z,19.83
2023-04-09T15:17:49.624Z,19.68
2023-04-09T15:20:18.518Z,20.23
2023-04-09T15:22:50.202Z,20.26
2023-04-09T15:25:18.367Z,19.12
2023-04-09T15:27:50.184Z,18.49
2023-04-09T15:30:22.369Z,18.07
2023-04-09T15:32:55.156Z,17.60
2023-04-09T15:35:29.696Z,17.41
2023-04-09T15:38:05.520Z,17.13
2023-04-09T15:40:35.289Z,17.28
2023-04-09T15:43:06.353Z,16.96
2023-04-09T15:45:35.046Z,17.29
2023-04-09T15:48:05.103Z,16.72
2023-04-09T15:50:35.239Z,16.70
2023-04-09T15:53:05.011Z,16.42
2023-04-09T15:55:34.283Z,16.77
2023-04-09T15:58:05.375Z,16.82
2023-04-09T16:00:33.460Z,16.71
2023-04-09T16:03:02.206Z,16.54
2023-04-09T16:05:31.026Z,16.74
2023-04-09T16:07:59.982Z,17.04
2023-04-09T16:10:31.106Z,17.07
2023-04-09T16:13:03.254Z,17.35
2023-04-09T16:15:32.424Z,16.80
2023-04-09T16:18:03.255Z,17.34
2023-04-09T16:20:31.985Z,17.11
2023-04-09T16:23:01.225Z,17.52
2023-04-09T16:25:34.256Z,18.02
2023-04-09T16:28:04.432Z,18.07
2023-04-09T16:30:32.774Z,17.89
2023-04-09T16:33:01.196Z,17.89
2023-04-09T16:35:30.324Z,17.77
2023-04-09T16:37:58.886Z,17.73
2023-04-09T16:40:28.510Z,17.96
2023-04-09T16:43:01.628Z,17.57
2023-04-09T16:45:33.186Z,17.02
2023-04-09T16:48:01.395Z,16.88
2023-04-09T16:50:29.690Z,16.70
2023-04-09T16:52:57.653Z,16.56
2023-04-09T16:55:26.011Z,16.60
2023-04-09T16:57:57.548Z,16.42
2023-04-09T17:00:28.020Z,16.27
2023-04-09T17:02:58.240Z,15.95
2023-04-09T17:05:26.340Z,16.10
2023-04-09T17:07:54.856Z,15.93
2023-04-09T17:10:22.916Z,15.84
2023-04-09T17:12:53.382Z,15.94
2023-04-09T17:15:29.245Z,15.77
2023-04-09T17:18:02.533Z,15.40
2023-04-09T17:20:33.187Z,15.49
2023-04-09T17:23:01.724Z,15.29
2023-04-09T17:28:13.347Z,15.28
2023-04-09T17:30:44.070Z,15.06
2023-04-09T17:33:16.847Z,15.16
2023-04-09T17:35:46.858Z,14.68
2023-04-09T17:38:23.638Z,15.14
2023-04-09T17:40:51.821Z,14.88
2023-04-09T17:43:25.785Z,14.57
2023-04-09T17:45:55.297Z,14.81
2023-04-09T17:48:24.868Z,14.50
2023-04-09T17:50:54.702Z,14.58
2023-04-09T17:53:23.441Z,14.38
2023-04-09T17:55:54.883Z,14.18
2023-04-09T17:58:24.345Z,14.30
2023-04-09T18:00:56.501Z,14.21
2023-04-09T18:03:27.162Z,14.13
2023-04-09T18:06:10.859Z,14.03
2023-04-09T18:08:38.959Z,13.86
2023-04-09T18:11:13.150Z,13.67
2023-04-09T18:13:47.616Z,13.34
2023-04-09T18:16:27.159Z,13.26
2023-04-09T18:18:59.599Z,13.43
2023-04-09T18:21:32.959Z,13.04
2023-04-09T18:26:57.232Z,12.92
2023-04-09T18:29:41.230Z,12.84
2023-04-09T18:32:09.645Z,12.82
2023-04-09T18:34:45.733Z,12.26
2023-04-09T18:37:16.235Z,12.49
2023-04-09T18:39:46.380Z,12.30
2023-04-09T18:42:15.093Z,12.48
2023-04-09T18:44:46.728Z,12.23
2023-04-09T18:47:24.589Z,11.92
2023-04-09T18:50:00.084Z,11.85
2023-04-09T18:52:37.795Z,11.87
2023-04-09T18:55:10.020Z,11.83
2023-04-09T18:57:56.469Z,11.57
2023-04-09T19:00:27.565Z,11.78
2023-04-09T19:02:56.979Z,11.73
2023-04-09T19:05:33.928Z,11.41
2023-04-09T19:08:02.908Z,11.38
2023-04-09T19:10:32.939Z,11.12
2023-04-09T20:34:07.960Z,9.23
2023-04-09T20:37:12.738Z,9.12
2023-04-09T20:39:46.602Z,9.31
2023-04-09T20:42:27.258Z,9.36
2023-04-09T20:47:44.002Z,9.29
2023-04-09T20:50:14.704Z,9.23
2023-04-09T20:52:48.117Z,9.23
2023-04-09T20:55:20.633Z,9.03
2023-04-09T20:57:55.672Z,9.03
2023-04-09T21:00:26.437Z,8.78
2023-04-09T21:02:57.558Z,8.81
2023-04-09T21:05:33.527Z,8.64
2023-04-09T21:08:05.769Z,8.70
2023-04-09T21:38:10.509Z,7.25
2023-04-09T21:40:50.064Z,7.79
2023-04-09T21:43:29.675Z,7.43
2023-04-09T21:46:22.369Z,7.73
2023-04-09T21:48:57.576Z,7.73
2023-04-09T21:51:32.533Z,7.68
2023-04-09T21:54:10.626Z,7.42
2023-04-09T21:56:54.665Z,7.69
2023-04-09T23:03:38.015Z,6.47
2023-04-09T23:06:14.911Z,6.63
2023-04-09T23:08:48.330Z,6.68
2023-04-09T23:11:16.544Z,6.67
2023-04-09T23:13:44.766Z,6.56
2023-04-09T23:16:24.090Z,6.58
2023-04-09T23:18:56.483Z,6.53
2023-04-09T23:21:27.141Z,6.28
2023-04-09T23:23:56.686Z,6.33
2023-04-09T23:26:28.191Z,6.71
2023-04-09T23:28:59.942Z,6.64
2023-04-09T23:34:14.753Z,6.35
2023-04-09T23:36:43.587Z,6.37
2023-04-09T23:39:12.001Z,6.22
2023-04-09T23:41:43.084Z,5.93
2023-04-09T23:44:12.657Z,6.13
2023-04-09T23:46:42.649Z,6.08
2023-04-09T23:49:18.759Z,6.12
2023-04-09T23:51:50.939Z,5.79
2023-04-09T23:54:23.057Z,5.68
2023-04-09T23:57:01.514Z,6.07
2023-04-09T23:59:33.952Z,5.90
